Time;durP1;ratioP1;P1;durP2;ratioP2;P2;SDS_P1;SDS_P2;PMS_P1;PMS_P2;Temp;Humidity;BMP_temperature;BMP_pressure;BME280_temperature;BME280_humidity;BME280_pressure;Samples;Min_cycle;Max_cycle;Signal;HPM_P1;HPM_P2
2022/06/04 00:00:53;;;;;;;14.43;5.90;;;12.60;99.90;;;;;;5062888;28;20053;-44
2022/06/04 00:03:21;;;;;;;14.82;6.95;;;12.60;99.90;;;;;;5056564;28;20078;-43
2022/06/04 00:05:49;;;;;;;12.90;7.03;;;12.60;99.90;;;;;;5067148;28;20126;-43
2022/06/04 00:08:16;;;;;;;15.38;7.30;;;12.50;99.90;;;;;;5058274;28;20088;-43
2022/06/04 00:16:20;;;;;;;12.50;6.47;;;12.50;99.90;;;;;;5018631;28;20057;-44
2022/06/04 00:18:48;;;;;;;20.88;8.20;;;12.50;99.90;;;;;;5065068;28;20329;-44
2022/06/04 00:21:15;;;;;;;15.20;7.28;;;12.50;99.90;;;;;;5059236;28;20485;-44
2022/06/04 00:23:42;;;;;;;15.05;6.82;;;12.50;99.90;;;;;;5061692;28;20083;-43
2022/06/04 00:26:10;;;;;;;16.02;7.70;;;12.40;99.90;;;;;;5067317;28;20055;-43
2022/06/04 00:28:38;;;;;;;15.82;7.60;;;12.40;99.90;;;;;;5054150;28;20084;-43
2022/06/04 00:31:05;;;;;;;14.80;6.78;;;12.40;99.90;;;;;;5051768;28;20517;-43
2022/06/04 00:33:31;;;;;;;9.60;5.88;;;12.40;99.90;;;;;;5080286;28;20055;-43
2022/06/04 00:36:00;;;;;;;18.00;7.03;;;12.40;99.90;;;;;;5055257;28;20098;-43
2022/06/04 00:38:28;;;;;;;12.20;6.38;;;12.40;99.90;;;;;;5053386;28;20053;-43
2022/06/04 00:40:57;;;;;;;18.63;7.50;;;12.40;99.90;;;;;;5059679;28;20041;-43
2022/06/04 00:43:24;;;;;;;13.25;7.35;;;12.30;99.90;;;;;;5050959;28;20107;-43
2022/06/04 00:46:38;;;;;;;14.82;7.93;;;12.30;99.90;;;;;;5053065;28;20053;-43
2022/06/04 00:49:05;;;;;;;16.05;8.10;;;12.30;99.90;;;;;;5061178;28;20423;-43
2022/06/04 00:51:34;;;;;;;14.57;6.70;;;12.20;99.90;;;;;;5064838;28;20076;-44
2022/06/04 00:54:01;;;;;;;15.68;7.07;;;12.20;99.90;;;;;;5060734;28;20524;-43
2022/06/04 00:56:31;;;;;;;15.25;7.55;;;12.20;99.90;;;;;;5054957;28;20048;-43
2022/06/04 00:59:15;;;;;;;14.68;6.78;;;12.20;99.90;;;;;;5068527;28;20044;-43
2022/06/04 01:01:47;;;;;;;16.35;7.10;;;12.20;99.90;;;;;;5059384;28;20057;-44
2022/06/04 01:04:47;;;;;;;14.50;6.93;;;12.20;99.90;;;;;;5054866;28;20052;-43
2022/06/04 01:07:11;;;;;;;18.63;8.05;;;12.20;99.90;;;;;;5056679;28;20114;-43
2022/06/04 01:09:44;;;;;;;15.57;6.72;;;12.20;99.90;;;;;;5052944;28;20081;-43
2022/06/04 01:12:22;;;;;;;15.75;7.20;;;12.10;99.90;;;;;;5053780;28;20068;-43
2022/06/04 01:15:08;;;;;;;18.90;7.30;;;12.10;99.90;;;;;;5061654;28;20057;-43
2022/06/04 01:17:42;;;;;;;15.05;7.45;;;12.00;99.90;;;;;;5052850;28;20053;-43
2022/06/04 01:20:14;;;;;;;12.57;6.30;;;12.00;99.90;;;;;;5058089;28;20052;-43
2022/06/04 01:23:15;;;;;;;12.35;5.47;;;12.00;99.90;;;;;;5064503;28;20106;-43
2022/06/04 01:25:48;;;;;;;16.40;8.07;;;12.00;99.90;;;;;;5052695;28;20053;-44
2022/06/04 01:28:17;;;;;;;13.70;7.25;;;12.00;99.90;;;;;;5054302;28;20088;-43
2022/06/04 01:30:45;;;;;;;16.77;7.93;;;12.00;99.90;;;;;;5055664;28;20049;-43
2022/06/04 01:33:14;;;;;;;18.00;6.65;;;11.90;99.90;;;;;;5063965;28;20127;-43
2022/06/04 01:35:44;;;;;;;17.67;8.05;;;12.00;99.90;;;;;;5051122;28;20419;-43
2022/06/04 01:38:12;;;;;;;15.02;7.93;;;12.00;99.90;;;;;;5054669;28;20494;-43
2022/06/04 01:43:27;;;;;;;16.58;8.50;;;11.90;99.90;;;;;;5068689;28;20048;-43
2022/06/04 01:45:56;;;;;;;14.63;7.70;;;11.80;99.90;;;;;;5068124;28;20075;-44
2022/06/04 01:48:22;;;;;;;14.85;7.10;;;11.80;99.90;;;;;;5050133;28;20053;-42
2022/06/04 01:50:52;;;;;;;15.85;8.00;;;11.80;99.90;;;;;;5050274;28;20057;-43
2022/06/04 01:53:19;;;;;;;19.20;7.57;;;11.90;99.90;;;;;;5056676;28;20087;-42
2022/06/04 01:55:49;;;;;;;13.18;7.28;;;11.90;99.90;;;;;;5054330;28;20049;-43
2022/06/04 01:58:18;;;;;;;19.80;8.02;;;11.90;99.90;;;;;;5059185;28;20051;-43
2022/06/04 02:00:48;;;;;;;14.88;7.65;;;11.80;99.90;;;;;;5065057;28;20456;-43
2022/06/04 02:03:17;;;;;;;16.67;7.90;;;11.80;99.90;;;;;;5052833;28;20133;-42
2022/06/04 02:05:50;;;;;;;16.27;7.82;;;11.80;99.90;;;;;;5050018;28;20055;-43
2022/06/04 02:08:22;;;;;;;18.52;7.68;;;11.80;99.90;;;;;;5056153;28;20106;-43
2022/06/04 02:10:50;;;;;;;14.57;6.78;;;11.80;99.90;;;;;;5068747;28;20044;-43
2022/06/04 02:13:17;;;;;;;22.88;9.55;;;11.80;99.90;;;;;;5068378;28;20088;-43
2022/06/04 02:15:49;;;;;;;21.75;8.32;;;11.80;99.90;;;;;;5053410;28;20397;-43
2022/06/04 02:18:15;;;;;;;19.73;8.77;;;11.70;99.90;;;;;;5059788;28;20447;-43
2022/06/04 02:20:42;;;;;;;17.98;8.07;;;11.70;99.90;;;;;;5055734;28;20067;-43
2022/06/04 02:23:09;;;;;;;19.85;8.13;;;11.70;99.90;;;;;;5058370;28;20507;-42
2022/06/04 02:25:36;;;;;;;21.50;9.60;;;11.70;99.90;;;;;;5054636;28;20140;-43
2022/06/04 02:28:04;;;;;;;15.57;8.57;;;11.70;99.90;;;;;;5052247;28;20049;-43
2022/06/04 02:30:36;;;;;;;14.32;6.45;;;11.60;99.90;;;;;;5066582;28;20148;-42
2022/06/04 02:33:06;;;;;;;;;;;11.70;99.90;;;;;;5062007;28;20101;-43
2022/06/04 02:35:39;;;;;;;20.60;9.43;;;11.60;99.90;;;;;;5064422;28;20001;-43
2022/06/04 02:38:08;;;;;;;22.23;10.50;;;11.60;99.90;;;;;;5054804;28;20044;-43
2022/06/04 02:40:37;;;;;;;23.08;9.40;;;11.60;99.90;;;;;;5067601;28;20049;-43
2022/06/04 02:43:08;;;;;;;20.27;9.82;;;11.60;99.90;;;;;;5054494;28;20084;-44
2022/06/04 02:45:35;;;;;;;18.13;8.80;;;11.60;99.90;;;;;;5070801;28;20045;-44
2022/06/04 02:48:05;;;;;;;18.35;9.07;;;11.50;99.90;;;;;;5057479;28;20558;-42
2022/06/04 02:50:35;;;;;;;14.05;7.78;;;11.60;99.90;;;;;;5058652;28;20113;-43
2022/06/04 02:53:02;;;;;;;14.57;6.95;;;11.60;99.90;;;;;;5065516;28;20081;-44
2022/06/04 02:55:30;;;;;;;17.25;9.40;;;11.60;99.90;;;;;;5053213;28;20114;-44
2022/06/04 02:57:59;;;;;;;24.85;11.23;;;11.60;99.90;;;;;;5052800;28;20147;-44
2022/06/04 03:00:26;;;;;;;19.25;10.57;;;11.60;99.90;;;;;;5053196;28;20130;-43
2022/06/04 03:02:53;;;;;;;16.58;7.85;;;11.50;99.90;;;;;;5062916;28;20045;-43
2022/06/04 03:05:23;;;;;;;18.23;8.68;;;11.50;99.90;;;;;;5074493;28;20724;-44
2022/06/04 03:07:54;;;;;;;23.48;9.77;;;11.50;99.90;;;;;;5071665;28;20090;-43
2022/06/04 03:10:22;;;;;;;16.40;8.73;;;11.50;99.90;;;;;;5060708;28;20412;-43
2022/06/04 03:12:50;;;;;;;22.23;11.48;;;11.40;99.90;;;;;;5056506;28;20344;-43
2022/06/04 03:15:17;;;;;;;17.20;9.75;;;11.40;99.90;;;;;;5054993;28;20053;-43
2022/06/04 03:17:45;;;;;;;20.13;10.35;;;11.40;99.90;;;;;;5054525;28;20057;-43
2022/06/04 03:20:13;;;;;;;25.73;10.70;;;11.40;99.90;;;;;;5055881;28;20056;-43
2022/06/04 03:22:41;;;;;;;27.00;10.45;;;11.40;99.90;;;;;;5056838;28;20134;-43
2022/06/04 03:25:08;;;;;;;20.20;10.20;;;11.30;99.90;;;;;;5053042;28;20401;-43
2022/06/04 03:27:35;;;;;;;16.88;10.00;;;11.30;99.90;;;;;;5055733;28;20130;-43
2022/06/04 03:30:02;;;;;;;20.58;10.40;;;11.30;99.90;;;;;;5059976;28;20084;-42
2022/06/04 03:32:29;;;;;;;19.52;9.30;;;11.30;99.90;;;;;;5056372;28;20594;-43
2022/06/04 03:34:55;;;;;;;23.35;11.48;;;11.30;99.90;;;;;;5056723;28;20444;-43
2022/06/04 03:37:22;;;;;;;16.77;9.43;;;11.30;99.90;;;;;;5061252;28;20041;-43
2022/06/04 03:39:50;;;;;;;23.60;10.13;;;11.30;99.90;;;;;;5062200;28;20087;-42
2022/06/04 03:42:17;;;;;;;21.20;11.20;;;11.20;99.90;;;;;;5054450;28;20083;-43
2022/06/04 03:44:47;;;;;;;20.52;9.30;;;11.20;99.90;;;;;;5058434;28;20048;-43
2022/06/04 03:47:15;;;;;;;15.48;8.95;;;11.30;99.90;;;;;;5057008;28;20048;-42
2022/06/04 03:49:42;;;;;;;17.48;8.98;;;11.30;99.90;;;;;;5055815;28;20060;-43
2022/06/04 03:52:09;;;;;;;16.88;10.10;;;11.20;99.90;;;;;;5057498;28;20052;-43
2022/06/04 03:54:54;;;;;;;21.40;9.57;;;11.20;99.90;;;;;;5062588;28;20049;-43
2022/06/04 03:57:41;;;;;;;17.23;9.13;;;11.20;99.90;;;;;;5057783;28;20049;-43
2022/06/04 04:00:14;;;;;;;24.95;11.13;;;11.20;99.90;;;;;;5058816;28;20053;-43
2022/06/04 04:02:41;;;;;;;20.33;9.98;;;11.30;99.90;;;;;;5064058;28;20134;-43
2022/06/04 04:05:09;;;;;;;15.07;9.88;;;11.20;99.90;;;;;;5068166;28;20091;-43
2022/06/04 04:07:35;;;;;;;23.17;10.32;;;11.20;99.90;;;;;;5069940;28;20527;-44
2022/06/04 04:10:02;;;;;;;18.70;10.15;;;11.20;99.90;;;;;;5062508;28;20052;-44
2022/06/04 04:12:31;;;;;;;16.65;9.45;;;11.20;99.90;;;;;;5070751;28;20440;-44
2022/06/04 04:14:58;;;;;;;19.95;9.20;;;11.20;99.90;;;;;;5064185;28;20098;-43
2022/06/04 04:17:24;;;;;;;22.10;9.93;;;11.20;99.90;;;;;;5058434;28;20060;-43
2022/06/04 04:19:51;;;;;;;20.02;8.77;;;11.20;99.90;;;;;;5063536;28;20060;-44
2022/06/04 04:22:18;;;;;;;16.92;8.20;;;11.20;99.90;;;;;;5053766;28;20048;-43
2022/06/04 04:24:45;;;;;;;20.02;9.15;;;11.20;99.90;;;;;;5053752;28;20132;-43
2022/06/04 04:27:12;;;;;;;17.40;8.35;;;11.30;99.90;;;;;;5053598;28;20135;-44
2022/06/04 04:29:40;;;;;;;16.77;8.57;;;11.30;99.90;;;;;;5058545;28;20049;-43
2022/06/04 04:32:08;;;;;;;16.02;7.47;;;11.30;99.90;;;;;;5066117;28;20111;-43
2022/06/04 04:34:35;;;;;;;19.30;8.43;;;11.30;99.90;;;;;;5078920;28;20504;-43
2022/06/04 04:37:02;;;;;;;19.02;8.68;;;11.30;99.90;;;;;;5056857;28;20052;-43
2022/06/04 04:39:28;;;;;;;16.60;8.40;;;11.40;99.90;;;;;;5060671;28;20088;-43
2022/06/04 04:41:55;;;;;;;18.65;8.63;;;11.40;99.90;;;;;;5061844;28;20463;-43
2022/06/04 04:44:22;;;;;;;16.25;7.82;;;11.40;99.90;;;;;;5055502;28;20064;-43
2022/06/04 04:46:51;;;;;;;15.77;8.10;;;11.40;99.90;;;;;;5062905;28;20439;-43
2022/06/04 04:49:18;;;;;;;12.73;7.22;;;11.50;99.90;;;;;;5060950;28;20053;-43
2022/06/04 04:51:45;;;;;;;15.93;7.65;;;11.50;99.90;;;;;;5057458;28;20441;-42
2022/06/04 04:54:12;;;;;;;16.50;7.07;;;11.50;99.90;;;;;;5062284;28;20098;-43
2022/06/04 04:56:39;;;;;;;16.77;6.80;;;11.60;99.90;;;;;;5055094;28;20444;-43
2022/06/04 04:59:05;;;;;;;12.48;7.03;;;11.60;99.90;;;;;;5058546;28;20570;-43
2022/06/04 05:01:33;;;;;;;14.77;6.80;;;11.60;99.90;;;;;;5057383;28;20102;-44
2022/06/04 05:04:01;;;;;;;11.55;6.40;;;11.70;99.90;;;;;;5052941;28;20098;-43
2022/06/04 05:06:28;;;;;;;13.23;6.82;;;11.70;99.90;;;;;;5056423;28;20102;-43
2022/06/04 05:08:55;;;;;;;13.27;6.13;;;11.70;99.90;;;;;;5062477;28;20539;-43
2022/06/04 05:11:23;;;;;;;10.77;6.45;;;11.80;99.90;;;;;;5059469;28;20049;-43
2022/06/04 05:13:50;;;;;;;12.40;6.53;;;11.90;99.90;;;;;;5064700;28;20052;-44
2022/06/04 05:16:18;;;;;;;14.77;6.82;;;11.90;99.90;;;;;;5058805;28;20110;-44
2022/06/04 05:18:45;;;;;;;12.77;6.80;;;12.00;99.90;;;;;;5068634;28;20044;-43
2022/06/04 05:21:19;;;;;;;17.80;6.72;;;12.10;99.90;;;;;;5055182;28;20064;-43
2022/06/04 05:23:45;;;;;;;10.32;6.13;;;12.20;99.90;;;;;;5056367;28;20401;-44
2022/06/04 05:26:12;;;;;;;15.63;5.82;;;12.20;99.90;;;;;;5058375;28;20065;-43
2022/06/04 05:28:39;;;;;;;11.82;5.97;;;12.30;99.90;;;;;;5055352;28;20048;-44
2022/06/04 05:31:06;;;;;;;14.23;6.25;;;12.40;99.90;;;;;;5062001;28;20489;-43
2022/06/04 05:33:33;;;;;;;11.73;5.75;;;12.60;99.90;;;;;;5056692;28;20110;-43
2022/06/04 05:35:59;;;;;;;12.88;5.82;;;12.60;99.90;;;;;;5052027;28;20107;-43
2022/06/04 05:38:28;;;;;;;9.52;5.80;;;12.60;99.90;;;;;;5051783;28;20118;-44
2022/06/04 05:40:59;;;;;;;10.93;5.45;;;12.70;99.90;;;;;;5059489;28;20053;-43
2022/06/04 05:43:26;;;;;;;9.10;5.45;;;12.80;99.90;;;;;;5063117;28;20401;-43
2022/06/04 05:45:57;;;;;;;11.25;5.65;;;12.90;99.90;;;;;;5064333;28;20124;-43
2022/06/04 05:48:24;;;;;;;8.80;5.28;;;13.00;99.90;;;;;;5050625;28;20456;-43
2022/06/04 05:50:51;;;;;;;11.43;5.18;;;13.00;99.90;;;;;;5055347;28;20513;-43
2022/06/04 05:53:18;;;;;;;10.98;5.78;;;13.10;99.90;;;;;;5060378;28;20049;-43
2022/06/04 05:55:46;;;;;;;10.50;5.20;;;13.20;99.90;;;;;;5055388;28;20037;-43
2022/06/04 05:58:13;;;;;;;10.48;5.18;;;13.30;99.90;;;;;;5053115;28;20465;-43
2022/06/04 06:00:40;;;;;;;12.40;4.80;;;13.40;99.90;;;;;;5056315;28;20464;-43
2022/06/04 06:03:07;;;;;;;15.57;5.88;;;13.60;99.90;;;;;;5060582;28;20137;-43
2022/06/04 06:05:33;;;;;;;12.18;5.57;;;13.60;99.90;;;;;;5060074;28;20053;-43
2022/06/04 06:08:00;;;;;;;14.52;6.57;;;13.70;99.90;;;;;;5052009;28;20118;-42
2022/06/04 06:10:27;;;;;;;12.20;4.88;;;13.80;99.90;;;;;;5060489;28;20045;-43
2022/06/04 06:12:55;;;;;;;11.30;5.28;;;13.80;99.90;;;;;;5061188;28;20049;-43
2022/06/04 06:15:22;;;;;;;9.32;5.07;;;13.90;99.90;;;;;;5065463;28;20554;-43
2022/06/04 06:17:49;;;;;;;12.63;5.15;;;13.80;99.90;;;;;;5060559;28;20102;-43
2022/06/04 06:20:17;;;;;;;14.02;5.60;;;13.80;99.90;;;;;;5067332;28;21495;-43
2022/06/04 06:22:44;;;;;;;8.95;4.90;;;13.90;99.90;;;;;;5063232;28;20049;-42
2022/06/04 06:25:11;;;;;;;10.02;4.88;;;14.00;99.90;;;;;;5059375;28;20145;-42
2022/06/04 06:27:37;;;;;;;11.00;4.93;;;14.10;99.90;;;;;;5060001;28;20448;-43
2022/06/04 06:30:07;;;;;;;8.80;5.07;;;14.20;99.90;;;;;;5056196;28;20053;-43
2022/06/04 06:32:34;;;;;;;7.47;4.80;;;14.30;99.90;;;;;;5058489;28;20075;-43
2022/06/04 06:35:01;;;;;;;9.25;5.20;;;14.50;99.90;;;;;;5077960;28;20186;-43
2022/06/04 06:37:28;;;;;;;9.23;5.00;;;14.70;99.90;;;;;;5055934;28;20041;-43
2022/06/04 06:39:55;;;;;;;10.35;4.95;;;14.70;99.90;;;;;;5063931;28;20056;-42
2022/06/04 06:42:22;;;;;;;10.13;5.10;;;14.90;99.90;;;;;;5062206;28;20052;-44
2022/06/04 06:44:49;;;;;;;10.82;5.30;;;14.90;99.90;;;;;;5061563;28;20072;-43
2022/06/04 06:47:17;;;;;;;8.70;4.95;;;15.00;99.90;;;;;;5075299;28;20045;-43
2022/06/04 06:49:44;;;;;;;8.30;4.95;;;15.10;99.90;;;;;;5059494;28;20107;-43
2022/06/04 06:52:11;;;;;;;9.00;4.95;;;15.20;99.90;;;;;;5060988;28;20064;-43
2022/06/04 06:54:38;;;;;;;7.20;4.78;;;15.30;99.90;;;;;;5059973;28;20404;-43
2022/06/04 06:57:06;;;;;;;9.07;4.50;;;15.50;99.90;;;;;;5065582;28;20503;-44
2022/06/04 06:59:33;;;;;;;10.52;4.68;;;15.60;99.90;;;;;;5060599;28;20184;-43
2022/06/04 07:02:00;;;;;;;11.80;5.03;;;15.70;99.80;;;;;;5058438;28;20049;-43
2022/06/04 07:04:29;;;;;;;8.95;4.43;;;15.70;99.40;;;;;;5059172;28;20057;-42
2022/06/04 07:06:57;;;;;;;9.80;4.60;;;15.70;99.30;;;;;;5063443;28;20124;-43
2022/06/04 07:09:25;;;;;;;11.77;4.50;;;15.80;99.10;;;;;;5054724;28;20049;-43
2022/06/04 07:11:52;;;;;;;6.07;3.78;;;15.80;99.00;;;;;;5058416;28;20045;-43
2022/06/04 07:14:19;;;;;;;7.65;4.65;;;15.80;99.00;;;;;;5057444;28;20134;-44
2022/06/04 07:16:46;;;;;;;8.13;4.93;;;15.90;99.00;;;;;;5069421;28;20113;-44
2022/06/04 07:19:13;;;;;;;7.75;4.50;;;16.00;98.90;;;;;;5056605;28;20061;-44
2022/06/04 07:21:41;;;;;;;8.38;4.57;;;16.00;98.40;;;;;;5054490;28;20387;-44
2022/06/04 07:24:08;;;;;;;8.82;4.97;;;16.10;98.70;;;;;;5052171;28;20102;-43
2022/06/04 07:26:35;;;;;;;8.98;4.72;;;16.10;98.50;;;;;;5054033;28;20120;-43
2022/06/04 07:29:02;;;;;;;7.85;5.07;;;16.20;98.70;;;;;;5055188;28;20053;-43
2022/06/04 07:31:29;;;;;;;10.23;4.80;;;16.20;98.10;;;;;;5065321;28;20080;-43
2022/06/04 07:33:56;;;;;;;7.57;4.80;;;16.20;98.20;;;;;;5068912;28;20063;-44
2022/06/04 07:36:25;;;;;;;9.45;4.88;;;16.30;98.30;;;;;;5072604;28;20394;-44
2022/06/04 07:38:53;;;;;;;8.65;5.30;;;16.40;98.20;;;;;;5063315;28;20393;-44
2022/06/04 07:41:21;;;;;;;10.68;4.80;;;16.50;98.10;;;;;;5056390;28;20100;-43
2022/06/04 07:43:48;;;;;;;10.57;4.78;;;16.70;97.60;;;;;;5053613;28;20454;-44
2022/06/04 07:46:15;;;;;;;8.52;4.95;;;16.80;97.50;;;;;;5052220;28;20052;-44
2022/06/04 07:48:42;;;;;;;7.13;4.55;;;16.90;97.60;;;;;;5054139;28;20452;-44
2022/06/04 07:51:09;;;;;;;8.48;4.88;;;17.00;97.20;;;;;;5053088;28;20056;-43
2022/06/04 07:53:35;;;;;;;10.95;4.85;;;17.00;96.90;;;;;;5071516;28;20080;-43
2022/06/04 07:56:06;;;;;;;8.13;4.60;;;17.00;96.90;;;;;;5072891;28;20106;-43
2022/06/04 07:58:33;;;;;;;10.65;5.00;;;17.00;96.40;;;;;;5074025;28;20101;-43
2022/06/04 08:01:01;;;;;;;11.38;4.82;;;17.00;96.30;;;;;;5073892;28;20115;-43
2022/06/04 08:03:27;;;;;;;10.38;5.47;;;17.00;96.10;;;;;;5073951;28;20131;-44
2022/06/04 08:05:54;;;;;;;6.93;4.20;;;17.10;96.00;;;;;;5071886;28;20102;-44
2022/06/04 08:08:21;;;;;;;5.50;3.90;;;17.10;95.60;;;;;;5071459;28;20097;-43
2022/06/04 08:10:48;;;;;;;6.38;4.60;;;17.20;95.70;;;;;;5061409;28;20048;-43
2022/06/04 08:13:16;;;;;;;9.30;4.95;;;17.20;95.80;;;;;;5092618;28;20060;-42
2022/06/04 08:15:43;;;;;;;9.82;4.63;;;17.30;95.40;;;;;;5075914;28;20127;-44
2022/06/04 08:18:11;;;;;;;8.20;4.53;;;17.30;95.10;;;;;;5051245;28;20111;-42
2022/06/04 08:20:41;;;;;;;8.00;4.88;;;17.30;95.20;;;;;;5054101;28;20057;-42
2022/06/04 08:23:08;;;;;;;8.68;5.15;;;17.30;94.90;;;;;;5052622;28;20470;-42
2022/06/04 08:25:38;;;;;;;8.40;4.97;;;17.40;95.00;;;;;;5055450;28;20045;-43
2022/06/04 08:28:05;;;;;;;9.75;5.00;;;17.40;94.70;;;;;;5093887;28;20048;-43
2022/06/04 08:30:33;;;;;;;8.50;4.70;;;17.50;94.70;;;;;;5084056;28;20079;-43
2022/06/04 08:33:00;;;;;;;7.57;4.72;;;17.50;94.80;;;;;;5073426;28;20561;-43
2022/06/04 08:35:27;;;;;;;8.40;4.63;;;17.60;94.70;;;;;;5071673;28;20052;-43
2022/06/04 08:37:54;;;;;;;8.18;4.35;;;17.80;94.60;;;;;;5073086;28;20101;-43
2022/06/04 08:40:25;;;;;;;7.25;4.22;;;17.90;94.50;;;;;;5072642;28;20113;-43
2022/06/04 08:42:56;;;;;;;5.57;4.07;;;18.10;94.40;;;;;;5081888;28;20093;-44
2022/06/04 08:45:23;;;;;;;7.80;4.10;;;18.20;94.10;;;;;;5093534;28;20450;-43
2022/06/04 08:47:52;;;;;;;9.52;4.40;;;18.30;93.40;;;;;;5093284;28;20083;-43
2022/06/04 08:50:19;;;;;;;7.82;5.07;;;18.40;92.80;;;;;;5092019;28;20055;-43
2022/06/04 08:52:47;;;;;;;11.52;4.25;;;18.50;92.70;;;;;;5093480;28;20055;-43
2022/06/04 08:58:05;;;;;;;8.65;4.43;;;18.40;92.10;;;;;;5068671;28;20048;-43
2022/06/04 09:00:35;;;;;;;6.22;4.13;;;18.40;92.40;;;;;;5052033;28;20049;-43
2022/06/04 09:03:06;;;;;;;6.45;3.95;;;18.40;92.00;;;;;;5051818;28;20060;-43
2022/06/04 09:05:54;;;;;;;4.75;4.00;;;18.40;91.90;;;;;;5051849;28;20053;-43
2022/06/04 09:08:22;;;;;;;7.95;3.90;;;18.50;91.90;;;;;;5052780;28;20551;-44
2022/06/04 09:10:50;;;;;;;7.63;4.60;;;18.60;91.90;;;;;;5052814;28;20057;-43
2022/06/04 09:13:18;;;;;;;5.70;4.05;;;18.80;91.20;;;;;;5052683;28;20045;-43
2022/06/04 09:15:46;;;;;;;7.82;4.85;;;18.90;91.50;;;;;;5053356;28;20501;-43
2022/06/04 09:18:16;;;;;;;8.30;4.32;;;19.20;91.90;;;;;;5051574;28;20088;-44
2022/06/04 09:20:44;;;;;;;8.13;4.32;;;19.50;91.30;;;;;;5051737;28;20099;-43
2022/06/04 09:23:16;;;;;;;7.85;4.32;;;19.80;90.70;;;;;;5051339;28;20053;-44
2022/06/04 09:25:46;;;;;;;5.38;3.90;;;20.00;90.30;;;;;;5052562;28;20060;-43
2022/06/04 09:28:19;;;;;;;9.75;4.72;;;20.10;89.30;;;;;;5050728;28;20095;-44
2022/06/04 09:30:47;;;;;;;8.77;4.15;;;20.20;89.00;;;;;;5051627;28;20114;-44
2022/06/04 09:33:41;;;;;;;9.68;4.80;;;20.40;89.70;;;;;;5054446;28;20504;-44
2022/06/04 09:36:11;;;;;;;9.30;4.60;;;20.70;87.00;;;;;;5073954;28;20127;-44
2022/06/04 09:38:38;;;;;;;6.60;4.35;;;20.70;87.40;;;;;;5091523;28;20055;-44
2022/06/04 09:41:05;;;;;;;5.28;4.60;;;20.80;88.50;;;;;;5074251;28;20516;-44
2022/06/04 09:43:32;;;;;;;6.03;4.40;;;21.00;87.20;;;;;;5070082;28;20109;-45
2022/06/04 09:46:01;;;;;;;9.00;4.82;;;21.20;86.40;;;;;;5067502;28;20048;-45
2022/06/04 09:48:30;;;;;;;6.22;4.68;;;21.30;85.60;;;;;;5056396;28;20440;-45
2022/06/04 09:50:59;;;;;;;6.03;4.88;;;21.60;85.50;;;;;;5057757;28;20095;-45
2022/06/04 09:53:27;;;;;;;9.30;4.28;;;21.90;85.10;;;;;;5069802;28;20068;-44
2022/06/04 09:55:56;;;;;;;6.78;4.13;;;22.10;84.80;;;;;;5064255;28;20045;-45
2022/06/04 09:58:27;;;;;;;7.40;4.63;;;22.20;83.20;;;;;;5096750;28;20511;-45
2022/06/04 10:00:56;;;;;;;9.15;4.07;;;22.30;81.80;;;;;;5087490;28;20451;-45
2022/06/04 10:03:22;;;;;;;8.27;4.70;;;22.40;83.00;;;;;;5075237;28;20053;-45
2022/06/04 10:05:51;;;;;;;8.07;4.70;;;22.60;82.20;;;;;;5064583;28;20477;-45
2022/06/04 10:08:22;;;;;;;9.02;4.53;;;22.60;80.00;;;;;;5055236;28;20053;-45
2022/06/04 10:10:49;;;;;;;8.88;4.25;;;22.30;79.10;;;;;;5055380;28;20049;-45
2022/06/04 10:16:15;;;;;;;9.65;4.80;;;22.10;80.60;;;;;;5071694;28;20063;-44
2022/06/04 10:18:52;;;;;;;6.70;3.85;;;22.10;79.80;;;;;;5095490;28;20067;-45
2022/06/04 10:21:20;;;;;;;3.60;3.20;;;22.10;79.70;;;;;;5095256;28;20052;-43
2022/06/04 10:23:49;;;;;;;6.13;3.50;;;22.00;80.40;;;;;;5056884;28;20055;-43
2022/06/04 10:26:44;;;;;;;5.68;3.50;;;22.00;79.70;;;;;;5055023;28;20463;-43
2022/06/04 10:29:47;;;;;;;9.88;4.00;;;22.10;79.20;;;;;;5054391;28;20128;-43
2022/06/04 10:32:22;;;;;;;4.22;3.60;;;22.10;79.70;;;;;;5054904;28;20045;-43
2022/06/04 10:34:51;;;;;;;5.45;3.75;;;22.20;79.70;;;;;;5072181;28;20097;-43
2022/06/04 10:37:27;;;;;;;5.65;3.63;;;22.40;79.50;;;;;;5074295;28;20098;-43
2022/06/04 10:40:02;;;;;;;5.07;3.28;;;22.60;78.20;;;;;;5074929;28;20056;-44
2022/06/04 10:42:35;;;;;;;6.45;3.58;;;22.80;78.70;;;;;;5074690;28;20052;-44
2022/06/04 10:45:17;;;;;;;5.70;3.33;;;23.20;78.80;;;;;;5074561;28;20055;-44
2022/06/04 10:47:46;;;;;;;;;;;23.30;74.90;;;;;;5075865;28;20045;-44
2022/06/04 10:50:18;;;;;;;8.05;3.08;;;23.00;75.80;;;;;;5075176;28;19943;-44
2022/06/04 10:52:46;;;;;;;7.80;3.83;;;23.10;76.80;;;;;;5075562;28;20106;-44
2022/06/04 10:55:19;;;;;;;5.15;3.22;;;23.10;75.00;;;;;;5075073;28;20455;-44
2022/06/04 10:57:49;;;;;;;8.95;3.35;;;23.20;76.50;;;;;;5073210;28;20059;-44
2022/06/04 11:00:18;;;;;;;5.85;3.25;;;23.20;74.60;;;;;;5074298;28;20067;-44
2022/06/04 11:02:48;;;;;;;5.68;3.28;;;23.20;74.60;;;;;;5074289;28;20074;-44
2022/06/04 11:05:17;;;;;;;6.45;2.95;;;23.20;74.40;;;;;;5074306;28;20102;-44
2022/06/04 11:07:52;;;;;;;5.05;2.80;;;23.30;73.40;;;;;;5073639;28;20054;-44
2022/06/04 11:10:22;;;;;;;4.03;2.70;;;23.50;74.10;;;;;;5074156;28;20058;-44
2022/06/04 11:12:51;;;;;;;5.60;2.92;;;23.90;74.30;;;;;;5074160;28;20151;-44
2022/06/04 11:15:20;;;;;;;7.32;3.20;;;24.10;74.50;;;;;;5074886;28;20052;-44
2022/06/04 11:17:50;;;;;;;6.63;3.63;;;24.20;72.30;;;;;;5074969;28;20106;-43
2022/06/04 11:20:18;;;;;;;5.45;3.00;;;24.30;71.20;;;;;;5075036;28;20052;-44
2022/06/04 11:22:48;;;;;;;6.20;2.97;;;24.30;71.30;;;;;;5074876;28;20056;-44
2022/06/04 11:25:24;;;;;;;6.45;2.90;;;24.30;69.70;;;;;;5074988;28;20411;-44
2022/06/04 11:27:53;;;;;;;5.75;3.13;;;24.40;69.20;;;;;;5074461;28;20087;-44
2022/06/04 11:30:25;;;;;;;3.85;2.67;;;24.30;68.00;;;;;;5074075;28;20048;-44
2022/06/04 11:32:55;;;;;;;5.57;2.40;;;24.20;68.00;;;;;;5073666;28;20453;-44
2022/06/04 11:35:31;;;;;;;6.07;2.40;;;24.10;68.10;;;;;;5074681;28;20087;-45
2022/06/04 11:38:38;;;;;;;5.15;2.67;;;24.00;67.90;;;;;;5073470;28;20049;-44
2022/06/04 11:41:14;;;;;;;4.20;2.80;;;24.00;67.40;;;;;;5038037;28;20404;-44
2022/06/04 11:43:57;;;;;;;4.35;2.47;;;23.80;66.20;;;;;;5074461;28;20056;-44
2022/06/04 11:46:30;;;;;;;5.43;2.75;;;23.70;66.80;;;;;;5073166;28;20056;-44
2022/06/04 11:49:09;;;;;;;4.47;2.92;;;23.70;69.10;;;;;;5058673;28;20094;-44
2022/06/04 11:51:52;;;;;;;5.30;2.80;;;23.80;66.60;;;;;;5073426;28;20056;-44
2022/06/04 11:54:25;;;;;;;4.70;2.80;;;23.60;66.10;;;;;;5074161;28;20059;-44
2022/06/04 11:57:00;;;;;;;6.63;2.60;;;23.50;67.40;;;;;;5054305;28;20489;-44
2022/06/04 11:59:34;;;;;;;5.95;3.10;;;23.50;68.10;;;;;;5055030;28;20044;-44
2022/06/04 12:02:02;;;;;;;5.45;2.78;;;23.50;69.50;;;;;;5070412;28;20093;-44
2022/06/04 12:04:32;;;;;;;7.75;2.50;;;23.60;68.60;;;;;;5080287;28;20052;-44
2022/06/04 12:07:04;;;;;;;4.80;2.67;;;23.70;69.40;;;;;;5074068;28;20040;-44
2022/06/04 12:09:36;;;;;;;6.53;3.08;;;23.80;69.50;;;;;;5058923;28;20052;-44
2022/06/04 12:12:09;;;;;;;6.85;3.50;;;23.90;68.50;;;;;;5054026;28;20571;-44
2022/06/04 12:14:38;;;;;;;5.18;2.83;;;23.90;67.60;;;;;;5059248;28;20096;-45
2022/06/04 12:17:11;;;;;;;3.97;2.67;;;23.90;68.60;;;;;;5066741;28;20055;-44
2022/06/04 12:25:10;;;;;;;3.67;2.35;;;24.30;66.80;;;;;;5053743;28;20053;-44
2022/06/04 12:27:55;;;;;;;4.40;2.85;;;24.40;65.40;;;;;;5053494;28;20551;-44
2022/06/04 12:30:32;;;;;;;5.10;2.70;;;24.50;64.60;;;;;;5053541;28;20049;-44
2022/06/04 12:32:58;;;;;;;6.13;2.80;;;24.30;64.00;;;;;;5053849;28;20044;-43
2022/06/04 12:35:25;;;;;;;9.57;2.85;;;24.20;65.70;;;;;;5079089;28;20113;-44
2022/06/04 12:37:55;;;;;;;6.03;2.50;;;24.30;65.80;;;;;;5088145;28;20053;-44
2022/06/04 12:40:33;;;;;;;3.75;2.70;;;24.40;65.40;;;;;;5053439;28;20448;-44
2022/06/04 12:43:08;;;;;;;5.82;3.00;;;24.40;65.50;;;;;;5052077;28;20098;-44
2022/06/04 12:45:38;;;;;;;5.28;2.60;;;24.50;65.00;;;;;;5053093;28;20448;-44
2022/06/04 12:48:25;;;;;;;6.45;2.50;;;24.60;65.20;;;;;;5053323;28;20053;-44
2022/06/04 12:50:57;;;;;;;5.10;2.65;;;24.90;66.50;;;;;;5053211;28;20053;-44
2022/06/04 12:53:24;;;;;;;6.45;2.75;;;25.00;63.70;;;;;;5053091;28;20044;-44
2022/06/04 12:55:53;;;;;;;4.00;2.50;;;25.00;63.60;;;;;;5053429;28;20048;-44
2022/06/04 12:58:28;;;;;;;3.90;2.75;;;25.10;63.10;;;;;;5053123;28;20053;-44
2022/06/04 13:00:55;;;;;;;3.85;2.33;;;25.20;62.50;;;;;;5053201;28;20048;-44
2022/06/04 13:03:38;;;;;;;6.07;2.92;;;25.20;62.90;;;;;;5053134;28;20444;-44
2022/06/04 13:06:35;;;;;;;7.47;2.95;;;25.30;61.30;;;;;;5052936;28;20107;-44
2022/06/04 13:09:13;;;;;;;5.07;2.85;;;25.20;61.60;;;;;;5052936;28;20098;-44
2022/06/04 13:11:52;;;;;;;6.78;2.67;;;25.10;62.90;;;;;;5056463;28;20109;-44
2022/06/04 13:14:27;;;;;;;4.25;2.28;;;25.00;61.70;;;;;;5072771;28;20052;-44